Mountain Village, Alaska
Current Conditions -  °F | °C
As of 3:33 PM on Friday 24 Oct 2014 (Local Time) from PAMO Reporting Station
Light Snow Light Snow  
Wind Chill: 24°   Ceiling: 200
Heat Index: 32°   Visibility: 0mi
Dew Point: 32°   Wind: 10mph
Humidity: 100%   Direction: 180°S
Pressure: 29.9"   Gusts: NA
Location:  62.09°N, 163.73°W
Report Text: PAMO 242333Z AUTO 18009KT M1/4SM -SN FG OVC002 00/00 A2990 RMK AO2 TSNO P0002 $
Loading
Personal Weather Stations






























Interactive Weather Map New forecast layout! Learn more

10-Day Weather Forecast

Advertisements
Track Severe Weather on mobile